EAGO2: Mountain Fork Riv, Eagletown,

                                SHEF ID:       EAGO2     Mountain Fork near Eagletown, OK
STATION TYPE: Stream Gauge
Regulating: Stage = 9.00, Flow = 9433

PRECIP STAGE RIV-FLOW WTR-TEMP BAT-LOAD
in ft cfs F volt
Ccp-Rev Ccp-Rev Ccp-Rev Ccp-Rev Ccp-Rev
(America/Chicago)
09/01 00:00 0.00 3.13 1472 81.07 12.73
09/01 01:00 0.00 2.95 1304 81.23 12.73
09/01 02:00 0.00 2.77 1150 80.73 12.73
09/01 03:00 0.00 2.61 1023 79.74 12.65
09/01 04:00 0.00 2.46 906 79.07 12.65
09/01 05:00 0.00 2.32 806 78.57 12.65
09/01 06:00 0.00 2.19 719 78.21 12.65
09/01 07:00 0.00 2.08 653 77.88 12.65
09/01 08:00 0.00 1.97 593 77.72 12.73
09/01 09:00 0.00 1.87 542 77.77 13.29
09/01 10:00 0.00 1.79 503 78.01 13.37
09/01 11:00 0.00 1.71 467 78.42 13.37
09/01 12:00 0.00 1.63 433 79.09 13.21
09/01 13:00 0.00 1.56 405 79.84 13.05
09/01 14:00 0.00 1.47 371 80.53 13.29
09/01 15:00 0.00 1.43 356 81.12 12.97
09/01 16:00 0.00 1.38 338 81.68 12.97
09/01 17:00 0.00 1.32 317 82.13 12.97
09/01 18:00 0.00 1.29 307 82.44 12.89
09/01 19:00 0.00 1.48 374 82.53 12.89
09/01 20:00 0.00 2.63 1038 82.62 12.89
09/01 21:00 0.00 3.78 2144 78.37 12.81
09/01 22:00 0.00 4.25 2693 77.83 12.81
09/01 23:00 0.00 4.20 2634 79.36 12.73
Data processed at Wed 02Sep2026 04:39 GMT

NOTICE: If you are parsing this page

Please convert to using our Data API. Starting early 2026 we will be migrating to: https://water.usace.army.mil with modern pages rendered in JavaScript. When this migration completes you will no longer be able to scrape this page! CWMSDataAPI (CDA)

Timeseries IDs (TSIDs)

TSIDs used from left to right in the data table
EAGL.Precip-Inc.Total.1Hour.1Hour.Ccp-Rev
EAGL.Stage.Inst.1Hour.0.Ccp-Rev
EAGL.Flow.Inst.1Hour.0.Ccp-Rev
EAGL.Temp-Water.Inst.1Hour.0.Ccp-Rev
EAGL.Volt-Battery Load.Inst.1Hour.0.Ccp-Rev

                            

All information presented herein is the property of the government of the United States of America and may be revised or deleted at any time without prior notice. Dissemination of this information without the expressed written consent of the Public Affairs Office, Tulsa District U.S. Army Corps of Engineers is strictly prohibited. These data are gathered electronically and, as presented, have NOT undergone any form of quality control. These data are NOT guaranteed to be valid or correct.